createdAt,value
2022-09-26T00:00:13.944Z,84.12
2022-09-26T00:02:51.354Z,84.38
2022-09-26T00:05:29.306Z,84.25
2022-09-26T00:08:03.843Z,84.33
2022-09-26T00:10:36.706Z,84.19
2022-09-26T00:13:11.589Z,84.44
2022-09-26T00:16:08.575Z,84.67
2022-09-26T00:18:56.567Z,84.79
2022-09-26T00:24:19.312Z,85.21
2022-09-26T00:27:34.439Z,85.68
2022-09-26T00:30:03.072Z,85.09
2022-09-26T00:32:44.793Z,85.91
2022-09-26T00:35:14.658Z,86.05
2022-09-26T00:37:52.444Z,85.51
2022-09-26T00:40:26.780Z,85.98
2022-09-26T00:43:02.850Z,86.50
2022-09-26T00:45:34.708Z,85.98
2022-09-26T00:48:28.104Z,86.23
2022-09-26T00:51:19.032Z,86.33
2022-09-26T00:54:09.069Z,86.46
2022-09-26T00:56:43.939Z,86.53
2022-09-26T00:59:31.537Z,86.45
2022-09-26T01:02:02.667Z,86.22
2022-09-26T01:04:54.533Z,86.85
2022-09-26T01:07:28.562Z,88.26
2022-09-26T01:10:02.617Z,87.39
2022-09-26T01:12:35.020Z,87.34
2022-09-26T01:15:08.259Z,87.04
2022-09-26T01:17:50.609Z,87.00
2022-09-26T01:20:32.236Z,87.39
2022-09-26T01:23:37.992Z,87.16
2022-09-26T01:26:49.197Z,87.05
2022-09-26T01:30:02.714Z,87.20
2022-09-26T01:33:07.776Z,86.48
2022-09-26T01:36:07.188Z,86.41
2022-09-26T01:38:54.593Z,86.42
2022-09-26T01:41:48.390Z,86.39
2022-09-26T01:44:34.803Z,86.44
2022-09-26T01:47:14.231Z,86.23
2022-09-26T01:50:07.192Z,86.59
2022-09-26T01:52:53.647Z,86.74
2022-09-26T01:55:44.582Z,86.22
2022-09-26T01:58:33.281Z,86.28
2022-09-26T02:01:17.412Z,86.93
2022-09-26T02:04:05.331Z,87.51
2022-09-26T02:06:45.834Z,87.02
2022-09-26T02:09:42.084Z,88.33
2022-09-26T02:12:50.056Z,87.82
2022-09-26T02:15:25.809Z,87.76
2022-09-26T02:18:05.874Z,87.94
2022-09-26T02:20:41.472Z,88.10
2022-09-26T02:23:23.818Z,88.53
2022-09-26T02:25:57.615Z,89.10
2022-09-26T02:28:27.055Z,88.75
2022-09-26T02:30:56.687Z,88.68
2022-09-26T02:33:28.516Z,88.86
2022-09-26T02:35:56.942Z,90.74
2022-09-26T02:38:27.746Z,89.20
2022-09-26T02:41:15.223Z,89.49
2022-09-26T02:44:21.580Z,89.90
2022-09-26T02:47:18.488Z,89.59
2022-09-26T02:50:20.105Z,90.03
2022-09-26T02:53:02.148Z,90.46
2022-09-26T02:55:58.753Z,90.44
2022-09-26T02:58:41.157Z,90.13
2022-09-26T03:01:19.306Z,90.16
2022-09-26T03:04:10.668Z,90.30
2022-09-26T03:06:46.992Z,91.38
2022-09-26T03:09:21.693Z,90.69
2022-09-26T03:12:02.607Z,90.43
2022-09-26T03:14:49.386Z,92.28
2022-09-26T03:17:29.388Z,91.83
2022-09-26T03:20:10.243Z,91.42
2022-09-26T03:23:02.822Z,92.03
2022-09-26T03:25:49.988Z,92.34
2022-09-26T03:28:37.647Z,91.38
2022-09-26T03:31:35.431Z,92.39
2022-09-26T03:34:05.346Z,92.58
2022-09-26T03:36:33.268Z,92.67
2022-09-26T03:39:04.217Z,92.90
2022-09-26T03:41:34.221Z,93.00
2022-09-26T03:44:02.893Z,93.16
2022-09-26T03:46:37.731Z,93.10
2022-09-26T03:49:12.277Z,92.84
2022-09-26T03:51:42.196Z,92.47
2022-09-26T03:54:08.982Z,92.47
2022-09-26T03:56:38.594Z,93.33
2022-09-26T03:59:06.768Z,93.16
2022-09-26T04:01:41.376Z,93.02
2022-09-26T04:04:16.238Z,93.51
2022-09-26T04:06:43.191Z,93.20
2022-09-26T04:09:15.900Z,92.83
2022-09-26T04:11:50.432Z,93.14
2022-09-26T04:14:24.061Z,92.94
2022-09-26T04:17:07.839Z,93.02
2022-09-26T04:19:40.726Z,92.83
2022-09-26T04:22:11.259Z,93.18
2022-09-26T04:24:40.051Z,93.83
2022-09-26T04:27:08.990Z,93.69
2022-09-26T04:29:38.862Z,93.76
2022-09-26T04:32:10.145Z,93.84
2022-09-26T04:34:41.201Z,93.05
2022-09-26T04:37:10.366Z,93.93
2022-09-26T04:39:55.078Z,93.67
2022-09-26T04:42:23.553Z,93.69
2022-09-26T04:44:54.541Z,94.04
2022-09-26T04:47:49.284Z,93.75
2022-09-26T05:00:03.773Z,93.96
2022-09-26T05:02:40.242Z,94.64
2022-09-26T05:05:18.368Z,93.96
2022-09-26T05:10:56.942Z,94.82
2022-09-26T05:13:24.094Z,94.86
2022-09-26T05:15:51.219Z,95.16
2022-09-26T05:18:25.216Z,94.45
2022-09-26T05:24:44.616Z,94.73
2022-09-26T05:27:17.744Z,94.53
2022-09-26T05:29:57.908Z,94.69
2022-09-26T05:32:34.919Z,94.13
2022-09-26T05:35:18.453Z,94.67
2022-09-26T05:38:01.365Z,94.55
2022-09-26T05:40:38.298Z,94.07
2022-09-26T05:43:07.176Z,94.11
2022-09-26T05:45:35.193Z,94.04
2022-09-26T05:48:03.917Z,94.32
2022-09-26T05:50:38.438Z,94.08
2022-09-26T05:53:13.018Z,94.33
2022-09-26T05:55:40.152Z,94.25
2022-09-26T05:58:10.061Z,94.10
2022-09-26T06:00:37.101Z,93.67
2022-09-26T06:03:05.803Z,93.41
2022-09-26T06:05:37.833Z,93.73
2022-09-26T06:08:14.629Z,93.71
2022-09-26T06:10:48.128Z,93.56
2022-09-26T06:13:18.076Z,93.83
2022-09-26T06:15:50.748Z,93.35
2022-09-26T06:18:53.208Z,93.55
2022-09-26T06:21:27.186Z,93.83
2022-09-26T06:24:03.002Z,93.24
2022-09-26T06:26:37.543Z,93.10
2022-09-26T06:29:11.010Z,93.18
2022-09-26T06:31:45.222Z,93.16
2022-09-26T06:34:15.066Z,92.82
2022-09-26T06:36:48.948Z,93.14
2022-09-26T06:39:17.918Z,93.02
2022-09-26T06:41:47.734Z,93.17
2022-09-26T06:44:15.169Z,93.36
2022-09-26T06:46:47.525Z,92.52
2022-09-26T06:49:16.218Z,92.66
2022-09-26T06:51:46.773Z,92.42
2022-09-26T06:54:18.107Z,92.28
2022-09-26T06:56:51.145Z,92.40
2022-09-26T06:59:18.485Z,92.34
2022-09-26T07:01:50.583Z,91.96
2022-09-26T07:04:20.599Z,92.08
2022-09-26T07:07:02.908Z,91.86
2022-09-26T07:09:32.279Z,91.32
2022-09-26T07:12:15.569Z,91.36
2022-09-26T07:14:53.623Z,91.25
2022-09-26T07:17:31.552Z,91.36
2022-09-26T07:20:04.594Z,91.05
2022-09-26T07:22:39.338Z,90.96
2022-09-26T07:25:14.328Z,90.80
2022-09-26T07:27:42.340Z,90.63
2022-09-26T07:30:10.081Z,90.53
2022-09-26T07:32:42.703Z,90.33
2022-09-26T07:35:20.453Z,89.88
2022-09-26T07:38:00.990Z,89.53
2022-09-26T07:40:29.147Z,89.48
2022-09-26T07:43:19.254Z,89.67
2022-09-26T07:45:56.351Z,89.39
2022-09-26T07:48:26.175Z,89.49
2022-09-26T07:50:58.712Z,89.46
2022-09-26T07:53:27.963Z,88.63
2022-09-26T07:56:06.704Z,88.88
2022-09-26T07:58:41.146Z,88.42
2022-09-26T08:01:15.128Z,88.35
2022-09-26T08:03:44.609Z,87.92
2022-09-26T08:06:13.817Z,87.92
2022-09-26T08:08:42.417Z,87.42
2022-09-26T08:11:17.146Z,87.23
2022-09-26T08:13:51.373Z,87.23
2022-09-26T08:16:24.886Z,87.05
2022-09-26T08:18:53.163Z,87.19
2022-09-26T08:21:31.922Z,87.01
2022-09-26T08:24:01.272Z,86.89
2022-09-26T08:26:30.769Z,87.13
2022-09-26T08:28:57.528Z,87.33
2022-09-26T08:31:27.120Z,86.87
2022-09-26T08:33:56.776Z,86.87
2022-09-26T08:36:23.768Z,87.23
2022-09-26T08:38:50.681Z,86.58
2022-09-26T08:41:35.204Z,85.94
2022-09-26T08:44:26.804Z,86.17
2022-09-26T08:46:55.333Z,85.81
2022-09-26T08:49:50.521Z,85.35
2022-09-26T08:52:27.381Z,85.09
2022-09-26T08:55:05.100Z,85.08
2022-09-26T08:57:49.676Z,84.60
2022-09-26T09:00:20.616Z,85.08
2022-09-26T09:03:05.134Z,84.61
2022-09-26T09:05:35.548Z,84.88
2022-09-26T09:08:11.511Z,84.51
2022-09-26T09:10:47.858Z,84.75
2022-09-26T09:13:34.295Z,84.63
2022-09-26T09:16:32.150Z,84.62
2022-09-26T09:19:17.123Z,84.45
2022-09-26T09:21:58.634Z,84.79
2022-09-26T09:24:41.143Z,84.81
2022-09-26T09:30:48.221Z,86.11
2022-09-26T09:33:30.357Z,87.48
2022-09-26T09:36:11.056Z,87.37
2022-09-26T09:38:58.198Z,87.77
2022-09-26T09:41:38.705Z,88.62
2022-09-26T09:44:34.022Z,89.14
2022-09-26T09:47:20.447Z,90.81
2022-09-26T09:50:16.922Z,91.22
2022-09-26T09:56:17.258Z,91.37
2022-09-26T09:59:12.384Z,91.86
2022-09-26T10:01:47.782Z,91.50
2022-09-26T10:04:47.270Z,91.98
2022-09-26T10:07:25.912Z,91.82
2022-09-26T10:12:48.720Z,92.27
2022-09-26T10:15:22.528Z,92.46
2022-09-26T10:18:24.678Z,94.00
2022-09-26T10:21:07.792Z,94.30
2022-09-26T10:23:50.462Z,93.84
2022-09-26T10:26:33.525Z,93.91
2022-09-26T10:29:44.945Z,94.56
2022-09-26T10:32:26.426Z,95.54
2022-09-26T10:35:34.150Z,95.38
2022-09-26T10:41:32.249Z,96.33
2022-09-26T10:44:20.320Z,95.52
2022-09-26T10:53:37.489Z,96.00
2022-09-26T10:56:22.435Z,96.16
2022-09-26T10:59:13.000Z,96.40
2022-09-26T11:02:03.940Z,96.06
2022-09-26T11:04:54.643Z,96.08
2022-09-26T11:07:34.096Z,97.10
2022-09-26T11:10:09.577Z,97.13
2022-09-26T11:13:22.601Z,96.81
2022-09-26T11:16:37.151Z,97.31
2022-09-26T11:19:33.545Z,97.15
2022-09-26T11:22:27.459Z,98.01
2022-09-26T11:25:10.826Z,97.62
2022-09-26T11:30:51.122Z,97.77
2022-09-26T11:33:35.175Z,98.85
2022-09-26T11:43:15.583Z,98.90
2022-09-26T11:46:32.338Z,99.31
2022-09-26T11:49:40.914Z,99.19
2022-09-26T11:58:32.239Z,100.00
2022-09-26T12:04:55.120Z,99.11
2022-09-26T12:08:08.871Z,99.50
2022-09-26T12:20:44.448Z,99.57
2022-09-26T12:27:23.382Z,100.00
2022-09-26T12:35:07.666Z,98.88
2022-09-26T12:37:22.062Z,98.67
2022-09-26T12:40:23.327Z,98.14
2022-09-26T12:44:00.280Z,97.88
2022-09-26T12:47:20.508Z,97.56
2022-09-26T12:50:31.739Z,97.57
2022-09-26T12:54:20.972Z,98.08
2022-09-26T13:07:25.016Z,97.45
2022-09-26T13:17:12.413Z,97.02
2022-09-26T13:20:16.866Z,97.18
2022-09-26T13:26:56.474Z,98.27
2022-09-26T13:30:35.283Z,98.97
2022-09-26T13:44:03.193Z,98.20
2022-09-26T13:47:17.295Z,96.13
2022-09-26T13:50:45.015Z,95.90
2022-09-26T13:54:06.913Z,97.02
2022-09-26T13:56:55.401Z,98.00
2022-09-26T14:03:28.127Z,90.38
2022-09-26T14:13:29.237Z,90.17
2022-09-26T14:16:38.158Z,89.87
2022-09-26T14:19:59.582Z,91.16
2022-09-26T14:23:25.539Z,90.06
2022-09-26T14:26:20.131Z,89.28
2022-09-26T14:29:36.953Z,87.96
2022-09-26T14:32:49.461Z,87.50
2022-09-26T14:36:23.513Z,87.93
2022-09-26T14:39:18.223Z,86.99
2022-09-26T14:42:28.292Z,87.10
2022-09-26T14:45:20.538Z,87.76
2022-09-26T14:48:09.035Z,88.51
2022-09-26T14:54:18.903Z,87.46
2022-09-26T14:57:20.884Z,87.56
2022-09-26T14:59:58.882Z,87.43
2022-09-26T15:03:15.623Z,87.40
2022-09-26T15:12:45.141Z,86.25
2022-09-26T15:15:58.176Z,86.33
2022-09-26T15:18:56.552Z,86.24
2022-09-26T15:22:11.758Z,85.83
2022-09-26T15:32:09.034Z,87.75
2022-09-26T15:35:05.985Z,88.17
2022-09-26T15:48:11.983Z,83.41
2022-09-26T15:57:46.293Z,83.60
2022-09-26T16:08:43.688Z,79.05
2022-09-26T16:16:18.301Z,81.79
2022-09-26T16:22:32.931Z,81.21
2022-09-26T16:35:45.305Z,81.51
2022-09-26T16:42:19.993Z,81.60
2022-09-26T16:45:26.480Z,81.61
2022-09-26T16:52:28.629Z,82.00
2022-09-26T17:04:53.991Z,83.07
2022-09-26T17:07:29.672Z,83.12
2022-09-26T17:12:57.039Z,83.61
2022-09-26T17:15:30.416Z,84.06
2022-09-26T17:27:41.261Z,84.63
2022-09-26T17:44:12.686Z,84.81
2022-09-26T17:46:44.416Z,84.66
2022-09-26T17:50:02.223Z,84.84
2022-09-26T17:58:55.523Z,84.03
2022-09-26T18:02:00.657Z,84.25
2022-09-26T18:05:11.039Z,84.32
2022-09-26T18:07:48.079Z,83.87
2022-09-26T18:10:36.801Z,84.99
2022-09-26T18:14:09.663Z,84.93
2022-09-26T18:16:19.652Z,85.28
2022-09-26T18:18:54.083Z,85.63
2022-09-26T18:24:41.706Z,85.68
2022-09-26T18:30:38.367Z,85.57
2022-09-26T18:33:09.480Z,85.60
2022-09-26T18:36:27.135Z,86.23
2022-09-26T18:39:12.419Z,86.12
2022-09-26T18:41:53.931Z,86.12
2022-09-26T18:44:40.023Z,85.88
2022-09-26T18:47:32.817Z,86.15
2022-09-26T18:53:00.485Z,86.13
2022-09-26T18:55:31.890Z,86.05
2022-09-26T19:01:10.226Z,86.39
2022-09-26T19:04:04.962Z,86.28
2022-09-26T19:06:39.280Z,86.45
2022-09-26T19:09:23.313Z,86.88
2022-09-26T19:17:41.590Z,88.15
2022-09-26T19:20:16.898Z,88.15
2022-09-26T19:22:46.696Z,88.33
2022-09-26T19:31:38.484Z,88.57
2022-09-26T19:34:17.009Z,88.47
2022-09-26T19:36:54.893Z,88.30
2022-09-26T19:42:26.774Z,88.70
2022-09-26T19:45:22.967Z,89.00
2022-09-26T19:48:25.814Z,88.87
2022-09-26T19:51:16.895Z,89.24
2022-09-26T19:53:54.974Z,88.72
2022-09-26T19:56:48.815Z,88.87
2022-09-26T20:00:12.004Z,88.75
2022-09-26T20:06:22.823Z,89.10
2022-09-26T20:12:16.780Z,88.67
2022-09-26T20:15:07.608Z,88.71
2022-09-26T20:27:35.371Z,88.82
2022-09-26T20:30:02.785Z,88.73
2022-09-26T20:35:24.363Z,88.99
2022-09-26T20:41:46.335Z,89.38
2022-09-26T20:47:27.450Z,89.01
2022-09-26T20:50:07.862Z,89.67
2022-09-26T20:55:54.009Z,89.39
2022-09-26T21:01:38.204Z,89.59
2022-09-26T21:04:08.762Z,89.89
2022-09-26T21:06:41.082Z,89.79
2022-09-26T21:09:30.873Z,89.93
2022-09-26T21:12:23.100Z,90.63
2022-09-26T21:15:03.987Z,89.87
2022-09-26T21:18:20.434Z,90.30
2022-09-26T21:24:39.336Z,90.31
2022-09-26T21:31:34.598Z,89.86
2022-09-26T21:41:41.735Z,89.62
2022-09-26T21:47:29.855Z,89.10
2022-09-26T21:51:13.292Z,89.26
2022-09-26T21:53:42.320Z,89.27
2022-09-26T21:56:43.934Z,88.90
2022-09-26T22:02:56.801Z,88.94
2022-09-26T22:06:31.058Z,88.47
2022-09-26T22:10:03.046Z,88.68
2022-09-26T22:13:36.608Z,88.91
2022-09-26T22:16:20.585Z,88.64
2022-09-26T22:19:18.226Z,89.08
2022-09-26T22:22:22.280Z,88.96
2022-09-26T22:27:43.155Z,89.37
2022-09-26T22:30:22.521Z,88.63
2022-09-26T22:33:34.722Z,88.89
2022-09-26T22:36:09.844Z,88.75
2022-09-26T22:39:11.233Z,88.44
2022-09-26T22:41:50.140Z,88.33
2022-09-26T22:47:57.201Z,88.46
2022-09-26T22:50:59.492Z,88.55
2022-09-26T22:53:59.581Z,88.57
2022-09-26T22:56:44.786Z,88.61
2022-09-26T22:59:14.192Z,88.20
2022-09-26T23:02:02.222Z,88.32
2022-09-26T23:11:00.294Z,88.63
2022-09-26T23:17:22.711Z,89.13
2022-09-26T23:23:27.271Z,88.87
2022-09-26T23:29:49.793Z,89.03
2022-09-26T23:35:39.706Z,89.32
2022-09-26T23:38:19.871Z,89.19
2022-09-26T23:44:40.564Z,90.75
2022-09-26T23:47:09.924Z,90.67
2022-09-26T23:49:41.006Z,90.92
2022-09-26T23:52:25.111Z,90.73
2022-09-26T23:55:22.904Z,90.42
2022-09-26T23:58:13.393Z,90.64
